Posidon Hellas — SYJY — position and weather

sailwx.info

Track history (hours):
 
Tides and Currents Weather Stations Pressure Air Temp Water Temp Dewpoint Dewpoint Depression Visibility Wind Speed Wind Dir Waves Ship Positions

Posidon Hellas

Last reported at 2018-Jul-22 00:30 UTC. Time now 2018-Jul-22 00:41 UTC.
Position N 37°57' E 023°38'.

Length 86 m; draft 3.5 m.

Type: Passenger vessel. MMSI: 237008100.

Date/timePositionNaut miles runAvg speedWind from/ knotsBaromVisibWave heightAir tempDewpointWater temp
2018-Jul-22 00:30N 37°57' E 023°38'0 0.0
2018-Jul-22 00:00N 37°57' E 023°38'0 0.0
2018-Jul-21 23:30N 37°57' E 023°38'0 0.0
2018-Jul-21 23:00N 37°57' E 023°38'0 0.0
2018-Jul-21 22:30N 37°57' E 023°39'0 0.0
2018-Jul-21 22:00N 37°57' E 023°39'0 0.0
2018-Jul-21 21:30N 37°57' E 023°39'0 0.0
2018-Jul-21 21:00N 37°57' E 023°39'0 0.0
2018-Jul-21 20:30N 37°57' E 023°38'0 0.0
2018-Jul-21 20:00N 37°57' E 023°39'0 0.0
2018-Jul-21 19:30N 37°57' E 023°39'0 0.0
2018-Jul-21 19:00N 37°57' E 023°39'0 0.0
2018-Jul-21 18:30N 37°57' E 023°39'3 6.6
2018-Jul-21 18:00N 37°54' E 023°35'815.3
2018-Jul-21 17:30N 37°49' E 023°29'5 9.6
2018-Jul-21 17:00N 37°45' E 023°26'2 4.0
2018-Jul-21 16:30N 37°47' E 023°25'815.3
2018-Jul-21 16:00N 37°51' E 023°33'713.7
2018-Jul-21 15:30N 37°57' E 023°38'0 0.0
2018-Jul-21 15:00N 37°57' E 023°38'0 0.0
2018-Jul-21 14:30N 37°57' E 023°38'1010.0
2018-Jul-21 13:30N 37°49' E 023°30'611.7
2018-Jul-21 13:00N 37°45' E 023°26'3 5.7
2018-Jul-21 12:30N 37°47' E 023°27'815.4
2018-Jul-21 12:00N 37°53' E 023°34'510.9
2018-Jul-21 11:30N 37°57' E 023°39'0 0.0
2018-Jul-21 11:00N 37°57' E 023°39'0 0.0
2018-Jul-21 10:30N 37°57' E 023°39'4 7.0
2018-Jul-21 10:00N 37°54' E 023°35'815.6
2018-Jul-21 09:30N 37°49' E 023°29'5 9.1
2018-Jul-21 09:00N 37°45' E 023°26'3 7.0
2018-Jul-21 08:30N 37°42' E 023°22'1 1.8
2018-Jul-21 08:00N 37°43' E 023°23'2 5.0
2018-Jul-21 07:30N 37°45' E 023°25'714.7
2018-Jul-21 07:00N 37°50' E 023°31'815.3
2018-Jul-21 06:30N 37°56' E 023°37'1 2.2
2018-Jul-21 06:00N 37°57' E 023°38'0 0.0
2018-Jul-21 05:30N 37°57' E 023°38'0 0.0
2018-Jul-21 05:00N 37°57' E 023°38'0 0.0
2018-Jul-21 04:30N 37°57' E 023°38'0 0.0
2018-Jul-21 04:00N 37°57' E 023°38'0 0.0
2018-Jul-21 03:30N 37°57' E 023°38'0 0.0
2018-Jul-21 03:00N 37°57' E 023°38'0 0.0
2018-Jul-21 02:30N 37°57' E 023°38'0 0.0
2018-Jul-21 02:00N 37°57' E 023°38'0 0.0
2018-Jul-21 01:30N 37°57' E 023°38'0 0.0
2018-Jul-21 01:00N 37°57' E 023°38'0 0.0
2018-Jul-21 00:30N 37°57' E 023°38'0 0.0
2018-Jul-21 00:00N 37°57' E 023°38'0 0.0
2018-Jul-20 23:30N 37°57' E 023°38'0 0.0
2018-Jul-20 23:00N 37°57' E 023°38'0 0.0
2018-Jul-20 22:30N 37°57' E 023°38'0 0.0
2018-Jul-20 22:00N 37°57' E 023°38'0 0.0
2018-Jul-20 21:30N 37°57' E 023°38'0 0.0
2018-Jul-20 21:00N 37°57' E 023°38'0 0.0
2018-Jul-20 20:30N 37°57' E 023°38'0 0.0
2018-Jul-20 20:00N 37°57' E 023°38'2 3.2
2018-Jul-20 19:30N 37°56' E 023°37'815.6
2018-Jul-20 19:00N 37°50' E 023°31'713.2
2018-Jul-20 18:30N 37°45' E 023°25'2 5.0
2018-Jul-20 18:00N 37°47' E 023°26'815.4
2018-Jul-20 17:30N 37°52' E 023°34'612.0
2018-Jul-20 17:00N 37°57' E 023°38'0 0.2
2018-Jul-20 16:30N 37°57' E 023°38'713.6
2018-Jul-20 16:00N 37°51' E 023°33'815.5
2018-Jul-20 15:30N 37°46' E 023°25'2 3.4
2018-Jul-20 14:59N 37°45' E 023°25'4 7.4
2018-Jul-20 14:30N 37°42' E 023°22'3 6.9
2018-Jul-20 14:00N 37°45' E 023°26'3 7.0
2018-Jul-20 13:30N 37°48' E 023°28'815.3
2018-Jul-20 13:00N 37°53' E 023°35'5 9.5
2018-Jul-20 12:30N 37°57' E 023°38'0 0.0
2018-Jul-20 12:00N 37°57' E 023°38'0 0.0
2018-Jul-20 11:30N 37°57' E 023°38'0 0.0
2018-Jul-20 11:00N 37°57' E 023°38'0 0.0
2018-Jul-20 10:30N 37°57' E 023°38'0 0.0
2018-Jul-20 10:00N 37°57' E 023°38'0 0.0
2018-Jul-20 09:30N 37°57' E 023°38'0 0.0
2018-Jul-20 09:00N 37°57' E 023°38'0 0.0
2018-Jul-20 08:30N 37°57' E 023°38'0 0.0
2018-Jul-20 08:00N 37°57' E 023°38'0 0.0
2018-Jul-20 07:30N 37°57' E 023°38'0 0.0
2018-Jul-20 07:01N 37°57' E 023°38'0 0.0
2018-Jul-20 06:30N 37°57' E 023°38'0 0.0
2018-Jul-20 06:00N 37°57' E 023°38'5 9.8
2018-Jul-20 05:30N 37°53' E 023°34'815.1
2018-Jul-20 05:00N 37°48' E 023°28'3 0.3
2018-Jul-19 17:14N 37°45' E 023°25'0 0.3
2018-Jul-19 17:00N 37°45' E 023°25'5 9.0
2018-Jul-19 16:30N 37°48' E 023°29'815.3
2018-Jul-19 16:00N 37°54' E 023°35'4 7.2
2018-Jul-19 15:30N 37°57' E 023°38'0 0.0
2018-Jul-19 15:00N 37°57' E 023°38'0 0.0
2018-Jul-19 14:30N 37°57' E 023°38'0 0.0
2018-Jul-19 13:30N 37°57' E 023°38'0 0.0
2018-Jul-19 13:01N 37°57' E 023°38'0 0.0
2018-Jul-19 12:30N 37°57' E 023°38'0 0.0
2018-Jul-19 12:00N 37°57' E 023°38'0 0.0
2018-Jul-19 11:30N 37°57' E 023°38'0 0.0
2018-Jul-19 11:00N 37°57' E 023°38'0 0.0
2018-Jul-19 10:30N 37°57' E 023°38'0 0.0
2018-Jul-19 10:00N 37°57' E 023°38'4 7.4
2018-Jul-19 09:30N 37°54' E 023°35'815.1
2018-Jul-19 09:00N 37°48' E 023°29'5 8.9
2018-Jul-19 08:30N 37°45' E 023°26'4 7.1
2018-Jul-19 08:00N 37°42' E 023°22'3 5.6
2018-Jul-19 07:30N 37°44' E 023°25'3 5.4
2018-Jul-19 07:00N 37°47' E 023°26'815.4
2018-Jul-19 06:30N 37°51' E 023°33'713.2
2018-Jul-19 06:00N 37°57' E 023°38'0 0.0
2018-Jul-19 05:30N 37°57' E 023°38'0 0.0
2018-Jul-19 05:00N 37°57' E 023°38'0 0.0
2018-Jul-19 04:30N 37°57' E 023°38'0 0.0
2018-Jul-19 04:00N 37°57' E 023°38'0 0.0
2018-Jul-19 03:30N 37°57' E 023°38'0 0.0
2018-Jul-19 03:00N 37°57' E 023°38'0 0.0
2018-Jul-19 02:30N 37°57' E 023°38'0 0.0
2018-Jul-19 02:00N 37°57' E 023°38'0 0.0
2018-Jul-19 01:30N 37°57' E 023°38'0 0.0
2018-Jul-19 01:00N 37°57' E 023°38'0 0.0
2018-Jul-19 00:30N 37°57' E 023°38'0 0.0
2018-Jul-19 00:00N 37°57' E 023°38'0 0.0
2018-Jul-18 23:30N 37°57' E 023°38'0 0.0
2018-Jul-18 23:00N 37°57' E 023°38'0 0.0
2018-Jul-18 22:30N 37°57' E 023°38'0 0.0
2018-Jul-18 22:00N 37°57' E 023°38'0 0.0
2018-Jul-18 21:30N 37°57' E 023°38'0 0.0
2018-Jul-18 21:00N 37°57' E 023°38'0 0.0
2018-Jul-18 20:30N 37°57' E 023°38'0 0.0
2018-Jul-18 20:00N 37°57' E 023°38'0 0.0
2018-Jul-18 19:30N 37°57' E 023°38'0 0.0
2018-Jul-18 19:00N 37°57' E 023°38'0 0.0
2018-Jul-18 18:30N 37°57' E 023°38'0 0.0
2018-Jul-18 18:00N 37°57' E 023°38'0 0.0
2018-Jul-18 17:30N 37°57' E 023°38'0 0.0
2018-Jul-18 17:00N 37°57' E 023°38'0 0.0
2018-Jul-18 16:30N 37°57' E 023°38'5 9.2
2018-Jul-18 16:00N 37°53' E 023°34'815.5
2018-Jul-18 15:30N 37°48' E 023°28'4 7.0
2018-Jul-18 15:00N 37°45' E 023°26'3 7.0
2018-Jul-18 14:30N 37°42' E 023°22'7 6.7
2018-Jul-18 13:30N 37°48' E 023°27'815.2
2018-Jul-18 13:00N 37°53' E 023°34'5 9.8
2018-Jul-18 12:30N 37°57' E 023°38'0 0.0
2018-Jul-18 12:00N 37°57' E 023°38'0 0.0
2018-Jul-18 11:30N 37°57' E 023°38'0 0.0
2018-Jul-18 10:30N 37°57' E 023°38'0 0.1
2018-Jul-18 10:00N 37°57' E 023°38'612.5
2018-Jul-18 09:30N 37°52' E 023°33'815.4
2018-Jul-18 09:00N 37°47' E 023°26'3 5.3
2018-Jul-18 08:30N 37°44' E 023°25'3 4.8
2018-Jul-18 07:54N 37°42' E 023°22'3 8.8
2018-Jul-18 07:30N 37°45' E 023°26'3 5.9
2018-Jul-18 07:00N 37°47' E 023°27'815.3
2018-Jul-18 06:30N 37°53' E 023°34'510.8
2018-Jul-18 06:00N 37°57' E 023°38'0 0.0
2018-Jul-18 05:30N 37°57' E 023°38'0 0.0
2018-Jul-18 05:00N 37°57' E 023°38'0 0.0
2018-Jul-18 04:30N 37°57' E 023°38'0 0.0
2018-Jul-18 04:00N 37°57' E 023°38'0 0.0
2018-Jul-18 03:30N 37°57' E 023°38'0 0.0
2018-Jul-18 03:00N 37°57' E 023°38'0 0.0
2018-Jul-18 02:30N 37°57' E 023°38'0 0.0
2018-Jul-18 02:00N 37°57' E 023°38'0 0.0
2018-Jul-18 01:30N 37°57' E 023°38'0 0.0
2018-Jul-18 01:00N 37°57' E 023°38'0 0.0
2018-Jul-18 00:30N 37°57' E 023°38'0 0.0
2018-Jul-18 00:00N 37°57' E 023°38'0 0.0
2018-Jul-17 23:30N 37°57' E 023°38'0 0.0
2018-Jul-17 23:00N 37°57' E 023°38'0 0.0
2018-Jul-17 22:30N 37°57' E 023°38'0 0.0
2018-Jul-17 22:00N 37°57' E 023°38'0 0.0
2018-Jul-17 21:30N 37°57' E 023°38'0 0.0
2018-Jul-17 21:00N 37°57' E 023°38'0 0.0
2018-Jul-17 20:30N 37°57' E 023°38'0 0.0
2018-Jul-17 20:00N 37°57' E 023°38'0 0.0
2018-Jul-17 19:30N 37°57' E 023°38'0 0.0
2018-Jul-17 19:00N 37°57' E 023°38'0 0.0
2018-Jul-17 18:30N 37°57' E 023°38'0 0.0
2018-Jul-17 18:00N 37°57' E 023°38'2 3.5
2018-Jul-17 17:30N 37°57' E 023°36'714.2
2018-Jul-17 17:00N 37°51' E 023°32'815.4
2018-Jul-17 16:30N 37°46' E 023°25'4 7.4
2018-Jul-17 16:00N 37°42' E 023°23'1 1.2
2018-Jul-17 15:30N 37°42' E 023°22'0 0.0
2018-Jul-17 15:00N 37°42' E 023°22'0 0.0
2018-Jul-17 14:30N 37°42' E 023°22'0 0.5
2018-Jul-17 14:00N 37°43' E 023°22'3 6.4
2018-Jul-17 13:30N 37°45' E 023°26'511.0
2018-Jul-17 13:00N 37°49' E 023°30'714.8
2018-Jul-17 12:30N 37°55' E 023°35'2 4.6
2018-Jul-17 12:00N 37°57' E 023°36'1 2.1
2018-Jul-17 11:30N 37°56' E 023°37'1 2.3
2018-Jul-17 11:00N 37°57' E 023°38'0 0.0
2018-Jul-17 10:30N 37°57' E 023°38'0 0.0
2018-Jul-17 10:00N 37°57' E 023°38'4 7.2
2018-Jul-17 09:30N 37°54' E 023°35'815.4
2018-Jul-17 09:00N 37°48' E 023°29'4 8.9
2018-Jul-17 08:30N 37°45' E 023°26'4 7.1
2018-Jul-17 08:00N 37°42' E 023°22'3 6.6
2018-Jul-17 07:30N 37°45' E 023°25'4 7.3
2018-Jul-17 07:00N 37°48' E 023°28'815.4
2018-Jul-17 06:30N 37°53' E 023°35'5 9.6
2018-Jul-17 06:00N 37°57' E 023°38'0 0.0
2018-Jul-16 21:10N 37°57' E 023°39'0 0.0
2018-Jul-16 21:00N 37°57' E 023°38'0 0.0
2018-Jul-16 20:30N 37°57' E 023°38'0 0.0
2018-Jul-16 20:00N 37°57' E 023°39'0 0.0
2018-Jul-16 19:30N 37°57' E 023°39'0 0.0
2018-Jul-16 19:00N 37°57' E 023°39'0 0.0
2018-Jul-16 18:30N 37°57' E 023°39'0 0.0
2018-Jul-16 18:00N 37°57' E 023°38'0 0.0
2018-Jul-16 17:30N 37°57' E 023°38'2 4.5
2018-Jul-16 17:00N 37°55' E 023°36'815.7
2018-Jul-16 16:30N 37°49' E 023°30'611.7
2018-Jul-16 16:00N 37°45' E 023°25'1 2.5
2018-Jul-16 15:30N 37°46' E 023°25'815.3
2018-Jul-16 15:00N 37°51' E 023°32'714.4
2018-Jul-16 14:30N 37°56' E 023°38'0 0.8
2018-Jul-16 14:00N 37°57' E 023°38'713.5
2018-Jul-16 13:30N 37°51' E 023°33'815.4
2018-Jul-16 13:00N 37°46' E 023°25'2 3.3
2018-Jul-16 12:30N 37°45' E 023°26'612.4
2018-Jul-16 12:00N 37°39' E 023°25'710.5
2018-Jul-16 11:23N 37°32' E 023°25'2 1.5
2018-Jul-16 09:54N 37°30' E 023°27'6 9.0
2018-Jul-16 09:12N 37°36' E 023°25'315.5
2018-Jul-16 09:00N 37°39' E 023°25'510.8
2018-Jul-16 08:30N 37°45' E 023°25'5 9.9
2018-Jul-16 08:00N 37°49' E 023°29'815.4
2018-Jul-16 07:30N 37°55' E 023°36'3 6.3
2018-Jul-16 07:00N 37°57' E 023°38'0 0.0
2018-Jul-16 06:30N 37°57' E 023°38'0 0.0
2018-Jul-16 06:00N 37°57' E 023°38'3 5.8
2018-Jul-16 05:30N 37°55' E 023°36'815.4
2018-Jul-16 05:00N 37°49' E 023°30'510.4
2018-Jul-16 04:30N 37°45' E 023°26'0 0.0
2018-Jul-16 04:00N 37°45' E 023°26'0 0.0
2018-Jul-16 02:02N 37°45' E 023°26'0 0.0
2018-Jul-15 18:57N 37°45' E 023°25'0 0.0
2018-Jul-15 18:30N 37°45' E 023°25'510.3
2018-Jul-15 18:00N 37°49' E 023°30'815.3
2018-Jul-15 17:30N 37°55' E 023°36'3 5.9
2018-Jul-15 17:00N 37°57' E 023°39'4 8.9
2018-Jul-15 16:30N 37°54' E 023°34'815.4
2018-Jul-15 16:00N 37°48' E 023°28'713.4
2018-Jul-15 15:30N 37°43' E 023°23'0 0.9
2018-Jul-15 15:00N 37°42' E 023°22'3 6.9
2018-Jul-15 14:30N 37°45' E 023°26'510.8
2018-Jul-15 14:00N 37°49' E 023°30'815.8
2018-Jul-15 13:30N 37°55' E 023°36'3 5.0
2018-Jul-15 13:00N 37°57' E 023°38'713.3
2018-Jul-15 12:30N 37°51' E 023°33'815.5
2018-Jul-15 12:00N 37°47' E 023°26'2 3.8
2018-Jul-15 11:30N 37°45' E 023°26'2 3.6
2018-Jul-15 11:00N 37°46' E 023°25'815.9
2018-Jul-15 10:30N 37°51' E 023°33'713.5
2018-Jul-15 10:00N 37°57' E 023°39'4 7.4
2018-Jul-15 09:30N 37°54' E 023°35'815.3
2018-Jul-15 09:00N 37°48' E 023°29'4 9.0
2018-Jul-15 08:30N 37°45' E 023°26'4 7.0
2018-Jul-15 08:00N 37°42' E 023°22'3 6.7
2018-Jul-15 07:30N 37°45' E 023°25'3 6.0
2018-Jul-15 07:00N 37°47' E 023°27'815.6
2018-Jul-15 06:30N 37°53' E 023°34'510.8
2018-Jul-15 06:00N 37°57' E 023°38'0 0.0
2018-Jul-15 05:30N 37°57' E 023°38'0 0.0
2018-Jul-15 05:00N 37°57' E 023°38'0 0.0
2018-Jul-15 04:30N 37°57' E 023°38'0 0.0
2018-Jul-15 04:00N 37°57' E 023°38'0 0.0
2018-Jul-15 03:30N 37°57' E 023°38'0 0.0
2018-Jul-15 03:00N 37°57' E 023°38'0 0.0
2018-Jul-15 02:30N 37°57' E 023°38'0 0.0
2018-Jul-15 02:00N 37°57' E 023°38'0 0.0
2018-Jul-15 01:30N 37°57' E 023°38'0 0.0
2018-Jul-15 01:00N 37°57' E 023°38'0 0.0
2018-Jul-15 00:30N 37°57' E 023°38'0 0.0
2018-Jul-15 00:00N 37°57' E 023°38'0 0.0
2018-Jul-14 23:30N 37°57' E 023°38'0 0.0
2018-Jul-14 23:00N 37°57' E 023°38'0 0.0
2018-Jul-14 22:30N 37°57' E 023°38'0 0.0
2018-Jul-14 22:00N 37°57' E 023°38'0 0.0
2018-Jul-14 21:30N 37°57' E 023°38'0 0.0
2018-Jul-14 21:00N 37°57' E 023°38'0 0.0
2018-Jul-14 20:30N 37°57' E 023°38'0 0.0
2018-Jul-14 20:00N 37°57' E 023°38'0 0.0
2018-Jul-14 19:30N 37°57' E 023°38'0 0.0
2018-Jul-14 19:00N 37°57' E 023°38'0 0.0
2018-Jul-14 18:30N 37°57' E 023°38'4 8.9
2018-Jul-14 18:00N 37°53' E 023°35'815.2
2018-Jul-14 17:30N 37°48' E 023°28'4 7.1
2018-Jul-14 16:58N 37°45' E 023°26'3 5.5
2018-Jul-14 16:30N 37°47' E 023°26'815.6
2018-Jul-14 16:00N 37°52' E 023°34'611.4
2018-Jul-14 15:30N 37°57' E 023°38'0 0.0
2018-Jul-14 15:00N 37°57' E 023°38'3 2.6
2018-Jul-14 14:00N 37°55' E 023°36'815.6
2018-Jul-14 13:30N 37°49' E 023°30'510.7
2018-Jul-14 13:00N 37°45' E 023°26'2 4.7
2018-Jul-14 12:30N 37°47' E 023°26'815.5
2018-Jul-14 12:00N 37°52' E 023°34'612.1
2018-Jul-14 11:30N 37°57' E 023°39'0 0.0
2018-Jul-14 11:00N 37°57' E 023°39'0 0.0
2018-Jul-14 10:30N 37°57' E 023°39'3 6.5
2018-Jul-14 10:00N 37°54' E 023°35'815.5
2018-Jul-14 09:30N 37°49' E 023°29'5 9.6
2018-Jul-14 09:00N 37°45' E 023°26'3 7.0
2018-Jul-14 08:30N 37°42' E 023°22'1 1.3
2018-Jul-14 08:00N 37°43' E 023°23'3 5.3
2018-Jul-14 07:30N 37°45' E 023°25'714.2
2018-Jul-14 07:00N 37°50' E 023°31'815.4
2018-Jul-14 06:30N 37°56' E 023°37'1 2.5
2018-Jul-14 06:00N 37°57' E 023°38'0 0.0
2018-Jul-14 05:30N 37°57' E 023°38'0 0.0
2018-Jul-14 05:00N 37°57' E 023°38'0 0.0
2018-Jul-14 04:30N 37°57' E 023°38'0 0.0
2018-Jul-14 04:00N 37°57' E 023°38'0 0.0
2018-Jul-14 03:30N 37°57' E 023°38'0 0.0
2018-Jul-14 03:00N 37°57' E 023°38'0 0.0
2018-Jul-14 02:30N 37°57' E 023°38'0 0.0
2018-Jul-14 02:00N 37°57' E 023°38'0 0.0
2018-Jul-14 01:30N 37°57' E 023°38'0 0.0
2018-Jul-14 01:00N 37°57' E 023°38'0 0.0
2018-Jul-14 00:30N 37°57' E 023°38'0 0.0
2018-Jul-14 00:00N 37°57' E 023°38'0 0.0
2018-Jul-13 23:30N 37°57' E 023°38'0 0.0
2018-Jul-13 23:00N 37°57' E 023°38'0 0.0
2018-Jul-13 22:30N 37°57' E 023°38'0 0.0
2018-Jul-13 22:00N 37°57' E 023°38'0 0.0
2018-Jul-13 21:30N 37°57' E 023°38'0 0.0
2018-Jul-13 21:00N 37°57' E 023°38'0 0.0
2018-Jul-13 20:30N 37°57' E 023°38'0 0.0
2018-Jul-13 20:00N 37°57' E 023°38'1 1.8
2018-Jul-13 19:30N 37°56' E 023°37'815.4
2018-Jul-13 19:00N 37°50' E 023°31'714.9
2018-Jul-13 18:30N 37°45' E 023°25'2 4.2
2018-Jul-13 18:00N 37°47' E 023°26'815.3
2018-Jul-13 17:30N 37°52' E 023°33'612.7
2018-Jul-13 17:00N 37°57' E 023°38'0 0.1
2018-Jul-13 16:30N 37°57' E 023°38'510.0
2018-Jul-13 16:00N 37°53' E 023°34'815.5
2018-Jul-13 15:30N 37°48' E 023°27'3 6.4
2018-Jul-13 15:00N 37°45' E 023°25'0 0.1
2018-Jul-13 14:00N 37°45' E 023°26'5 9.3
2018-Jul-13 13:30N 37°48' E 023°29'815.1
2018-Jul-13 13:00N 37°54' E 023°35'4 7.4
2018-Jul-13 12:30N 37°57' E 023°38'0 0.0
2018-Jul-13 12:00N 37°57' E 023°38'0 0.0
2018-Jul-13 11:30N 37°57' E 023°38'0 0.0
2018-Jul-13 11:00N 37°57' E 023°38'0 0.0
2018-Jul-13 10:30N 37°57' E 023°38'0 0.0
2018-Jul-13 10:00N 37°57' E 023°38'0 0.0
2018-Jul-13 09:30N 37°57' E 023°38'0 0.0
2018-Jul-13 09:00N 37°57' E 023°38'0 0.0
2018-Jul-13 08:30N 37°57' E 023°38'0 0.0
2018-Jul-13 08:00N 37°57' E 023°38'0 0.0
2018-Jul-13 07:30N 37°57' E 023°38'0 0.0
2018-Jul-13 07:00N 37°57' E 023°38'0 0.0
2018-Jul-13 06:30N 37°57' E 023°38'0 0.0
2018-Jul-13 06:00N 37°57' E 023°38'4 8.4
2018-Jul-13 05:30N 37°54' E 023°35'815.6
2018-Jul-13 05:00N 37°48' E 023°28'4 7.7
2018-Jul-13 04:30N 37°45' E 023°26'0 0.0
2018-Jul-13 04:00N 37°45' E 023°26'0 0.0
2018-Jul-13 03:30N 37°45' E 023°26'0 0.0
2018-Jul-13 03:00N 37°45' E 023°26'0 0.0
2018-Jul-13 02:03N 37°45' E 023°26'0 0.0
2018-Jul-13 01:56N 37°45' E 023°25'0 0.0
2018-Jul-13 01:28N 37°45' E 023°26'0 0.0
2018-Jul-13 01:00N 37°45' E 023°26'0 0.0
2018-Jul-13 00:30N 37°45' E 023°26'0 0.0
2018-Jul-13 00:00N 37°45' E 023°26'0 0.0
2018-Jul-12 23:30N 37°45' E 023°26'0 0.0
2018-Jul-12 22:59N 37°45' E 023°26'0 0.0
2018-Jul-12 22:30N 37°45' E 023°26'0 0.0
2018-Jul-12 22:00N 37°45' E 023°26'0 0.0
2018-Jul-12 21:30N 37°45' E 023°26'0 0.0
2018-Jul-12 21:00N 37°45' E 023°26'0 0.0
2018-Jul-12 20:30N 37°45' E 023°26'0 0.0
2018-Jul-12 19:53N 37°45' E 023°26'0 0.0
2018-Jul-12 17:13N 37°45' E 023°26'0 0.0
2018-Jul-12 17:00N 37°45' E 023°26'4 8.6
2018-Jul-12 16:30N 37°48' E 023°29'815.2
2018-Jul-12 16:00N 37°54' E 023°35'4 7.7
2018-Jul-12 15:30N 37°57' E 023°38'0 0.0
2018-Jul-12 15:00N 37°57' E 023°38'0 0.0
2018-Jul-12 14:30N 37°57' E 023°38'0 0.0
2018-Jul-12 14:00N 37°57' E 023°38'0 0.0
2018-Jul-12 13:30N 37°57' E 023°38'0 0.0
2018-Jul-12 13:00N 37°57' E 023°38'0 0.0
2018-Jul-12 12:30N 37°57' E 023°38'0 0.0
2018-Jul-12 12:00N 37°57' E 023°38'0 0.0
2018-Jul-12 11:30N 37°57' E 023°38'0 0.0
2018-Jul-12 11:00N 37°57' E 023°38'0 0.0
2018-Jul-12 10:30N 37°57' E 023°38'0 0.0
2018-Jul-12 10:00N 37°57' E 023°38'4 8.2
2018-Jul-12 09:30N 37°54' E 023°35'815.1
2018-Jul-12 09:00N 37°48' E 023°28'4 8.2
2018-Jul-12 08:30N 37°45' E 023°26'4 7.1
2018-Jul-12 08:00N 37°42' E 023°22'3 5.7
2018-Jul-12 07:30N 37°44' E 023°25'3 6.5
2018-Jul-12 07:00N 37°47' E 023°26'815.2
2018-Jul-12 06:30N 37°52' E 023°34'612.0
2018-Jul-12 06:00N 37°57' E 023°38'0 0.0
2018-Jul-12 05:30N 37°57' E 023°38'0 0.0
2018-Jul-12 05:00N 37°57' E 023°38'0 0.0
2018-Jul-12 04:30N 37°57' E 023°38'0 0.0
2018-Jul-12 04:00N 37°57' E 023°38'0 0.0
2018-Jul-12 03:30N 37°57' E 023°38'0 0.0
2018-Jul-12 03:00N 37°57' E 023°38'0 0.0
2018-Jul-12 02:30N 37°57' E 023°38'0 0.0
2018-Jul-12 02:00N 37°57' E 023°38'0 0.0
2018-Jul-12 01:30N 37°57' E 023°38'0 0.0
2018-Jul-12 01:00N 37°57' E 023°38'0 0.0
2018-Jul-12 00:30N 37°57' E 023°38'  
Track history (hours):
 
Tides and Currents Weather Stations Pressure Air Temp Water Temp Dewpoint Dewpoint Depression Visibility Wind Speed Wind Dir Waves Ship Positions

Posidon Hellas

Last reported at 2018-Jul-22 00:30 UTC. Time now 2018-Jul-22 00:41 UTC.
Position N 37°57' E 023°38'.

Length 86 m; draft 3.5 m.

Type: Passenger vessel. MMSI: 237008100.

Date/timePositionNaut miles runAvg speedWind from/ knotsBaromVisibWave heightAir tempDewpointWater temp
2018-Jul-22 00:30N 37°57' E 023°38'0 0.0
2018-Jul-22 00:00N 37°57' E 023°38'0 0.0
2018-Jul-21 23:30N 37°57' E 023°38'0 0.0
2018-Jul-21 23:00N 37°57' E 023°38'0 0.0
2018-Jul-21 22:30N 37°57' E 023°39'0 0.0
2018-Jul-21 22:00N 37°57' E 023°39'0 0.0
2018-Jul-21 21:30N 37°57' E 023°39'0 0.0
2018-Jul-21 21:00N 37°57' E 023°39'0 0.0
2018-Jul-21 20:30N 37°57' E 023°38'0 0.0
2018-Jul-21 20:00N 37°57' E 023°39'0 0.0
2018-Jul-21 19:30N 37°57' E 023°39'0 0.0
2018-Jul-21 19:00N 37°57' E 023°39'0 0.0
2018-Jul-21 18:30N 37°57' E 023°39'3 6.6
2018-Jul-21 18:00N 37°54' E 023°35'815.3
2018-Jul-21 17:30N 37°49' E 023°29'5 9.6
2018-Jul-21 17:00N 37°45' E 023°26'2 4.0
2018-Jul-21 16:30N 37°47' E 023°25'815.3
2018-Jul-21 16:00N 37°51' E 023°33'713.7
2018-Jul-21 15:30N 37°57' E 023°38'0 0.0
2018-Jul-21 15:00N 37°57' E 023°38'0 0.0
2018-Jul-21 14:30N 37°57' E 023°38'1010.0
2018-Jul-21 13:30N 37°49' E 023°30'611.7
2018-Jul-21 13:00N 37°45' E 023°26'3 5.7
2018-Jul-21 12:30N 37°47' E 023°27'815.4
2018-Jul-21 12:00N 37°53' E 023°34'510.9
2018-Jul-21 11:30N 37°57' E 023°39'0 0.0
2018-Jul-21 11:00N 37°57' E 023°39'0 0.0
2018-Jul-21 10:30N 37°57' E 023°39'4 7.0
2018-Jul-21 10:00N 37°54' E 023°35'815.6
2018-Jul-21 09:30N 37°49' E 023°29'5 9.1
2018-Jul-21 09:00N 37°45' E 023°26'3 7.0
2018-Jul-21 08:30N 37°42' E 023°22'1 1.8
2018-Jul-21 08:00N 37°43' E 023°23'2 5.0
2018-Jul-21 07:30N 37°45' E 023°25'714.7
2018-Jul-21 07:00N 37°50' E 023°31'815.3
2018-Jul-21 06:30N 37°56' E 023°37'1 2.2
2018-Jul-21 06:00N 37°57' E 023°38'0 0.0
2018-Jul-21 05:30N 37°57' E 023°38'0 0.0
2018-Jul-21 05:00N 37°57' E 023°38'0 0.0
2018-Jul-21 04:30N 37°57' E 023°38'0 0.0
2018-Jul-21 04:00N 37°57' E 023°38'0 0.0
2018-Jul-21 03:30N 37°57' E 023°38'0 0.0
2018-Jul-21 03:00N 37°57' E 023°38'0 0.0
2018-Jul-21 02:30N 37°57' E 023°38'0 0.0
2018-Jul-21 02:00N 37°57' E 023°38'0 0.0
2018-Jul-21 01:30N 37°57' E 023°38'0 0.0
2018-Jul-21 01:00N 37°57' E 023°38'0 0.0
2018-Jul-21 00:30N 37°57' E 023°38'0 0.0
2018-Jul-21 00:00N 37°57' E 023°38'0 0.0
2018-Jul-20 23:30N 37°57' E 023°38'0 0.0
2018-Jul-20 23:00N 37°57' E 023°38'0 0.0
2018-Jul-20 22:30N 37°57' E 023°38'0 0.0
2018-Jul-20 22:00N 37°57' E 023°38'0 0.0
2018-Jul-20 21:30N 37°57' E 023°38'0 0.0
2018-Jul-20 21:00N 37°57' E 023°38'0 0.0
2018-Jul-20 20:30N 37°57' E 023°38'0 0.0
2018-Jul-20 20:00N 37°57' E 023°38'2 3.2
2018-Jul-20 19:30N 37°56' E 023°37'815.6
2018-Jul-20 19:00N 37°50' E 023°31'713.2
2018-Jul-20 18:30N 37°45' E 023°25'2 5.0
2018-Jul-20 18:00N 37°47' E 023°26'815.4
2018-Jul-20 17:30N 37°52' E 023°34'612.0
2018-Jul-20 17:00N 37°57' E 023°38'0 0.2
2018-Jul-20 16:30N 37°57' E 023°38'713.6
2018-Jul-20 16:00N 37°51' E 023°33'815.5
2018-Jul-20 15:30N 37°46' E 023°25'2 3.4
2018-Jul-20 14:59N 37°45' E 023°25'4 7.4
2018-Jul-20 14:30N 37°42' E 023°22'3 6.9
2018-Jul-20 14:00N 37°45' E 023°26'3 7.0
2018-Jul-20 13:30N 37°48' E 023°28'815.3
2018-Jul-20 13:00N 37°53' E 023°35'5 9.5
2018-Jul-20 12:30N 37°57' E 023°38'0 0.0
2018-Jul-20 12:00N 37°57' E 023°38'0 0.0
2018-Jul-20 11:30N 37°57' E 023°38'0 0.0
2018-Jul-20 11:00N 37°57' E 023°38'0 0.0
2018-Jul-20 10:30N 37°57' E 023°38'0 0.0
2018-Jul-20 10:00N 37°57' E 023°38'0 0.0
2018-Jul-20 09:30N 37°57' E 023°38'0 0.0
2018-Jul-20 09:00N 37°57' E 023°38'0 0.0
2018-Jul-20 08:30N 37°57' E 023°38'0 0.0
2018-Jul-20 08:00N 37°57' E 023°38'0 0.0
2018-Jul-20 07:30N 37°57' E 023°38'0 0.0
2018-Jul-20 07:01N 37°57' E 023°38'0 0.0
2018-Jul-20 06:30N 37°57' E 023°38'0 0.0
2018-Jul-20 06:00N 37°57' E 023°38'5 9.8
2018-Jul-20 05:30N 37°53' E 023°34'815.1
2018-Jul-20 05:00N 37°48' E 023°28'3 0.3
2018-Jul-19 17:14N 37°45' E 023°25'0 0.3
2018-Jul-19 17:00N 37°45' E 023°25'5 9.0
2018-Jul-19 16:30N 37°48' E 023°29'815.3
2018-Jul-19 16:00N 37°54' E 023°35'4 7.2
2018-Jul-19 15:30N 37°57' E 023°38'0 0.0
2018-Jul-19 15:00N 37°57' E 023°38'0 0.0
2018-Jul-19 14:30N 37°57' E 023°38'0 0.0
2018-Jul-19 13:30N 37°57' E 023°38'0 0.0
2018-Jul-19 13:01N 37°57' E 023°38'0 0.0
2018-Jul-19 12:30N 37°57' E 023°38'0 0.0
2018-Jul-19 12:00N 37°57' E 023°38'0 0.0
2018-Jul-19 11:30N 37°57' E 023°38'0 0.0
2018-Jul-19 11:00N 37°57' E 023°38'0 0.0
2018-Jul-19 10:30N 37°57' E 023°38'0 0.0
2018-Jul-19 10:00N 37°57' E 023°38'4 7.4
2018-Jul-19 09:30N 37°54' E 023°35'815.1
2018-Jul-19 09:00N 37°48' E 023°29'5 8.9
2018-Jul-19 08:30N 37°45' E 023°26'4 7.1
2018-Jul-19 08:00N 37°42' E 023°22'3 5.6
2018-Jul-19 07:30N 37°44' E 023°25'3 5.4
2018-Jul-19 07:00N 37°47' E 023°26'815.4
2018-Jul-19 06:30N 37°51' E 023°33'713.2
2018-Jul-19 06:00N 37°57' E 023°38'0 0.0
2018-Jul-19 05:30N 37°57' E 023°38'0 0.0
2018-Jul-19 05:00N 37°57' E 023°38'0 0.0
2018-Jul-19 04:30N 37°57' E 023°38'0 0.0
2018-Jul-19 04:00N 37°57' E 023°38'0 0.0
2018-Jul-19 03:30N 37°57' E 023°38'0 0.0
2018-Jul-19 03:00N 37°57' E 023°38'0 0.0
2018-Jul-19 02:30N 37°57' E 023°38'0 0.0
2018-Jul-19 02:00N 37°57' E 023°38'0 0.0
2018-Jul-19 01:30N 37°57' E 023°38'0 0.0
2018-Jul-19 01:00N 37°57' E 023°38'0 0.0
2018-Jul-19 00:30N 37°57' E 023°38'0 0.0
2018-Jul-19 00:00N 37°57' E 023°38'0 0.0
2018-Jul-18 23:30N 37°57' E 023°38'0 0.0
2018-Jul-18 23:00N 37°57' E 023°38'0 0.0
2018-Jul-18 22:30N 37°57' E 023°38'0 0.0
2018-Jul-18 22:00N 37°57' E 023°38'0 0.0
2018-Jul-18 21:30N 37°57' E 023°38'0 0.0
2018-Jul-18 21:00N 37°57' E 023°38'0 0.0
2018-Jul-18 20:30N 37°57' E 023°38'0 0.0
2018-Jul-18 20:00N 37°57' E 023°38'0 0.0
2018-Jul-18 19:30N 37°57' E 023°38'0 0.0
2018-Jul-18 19:00N 37°57' E 023°38'0 0.0
2018-Jul-18 18:30N 37°57' E 023°38'0 0.0
2018-Jul-18 18:00N 37°57' E 023°38'0 0.0
2018-Jul-18 17:30N 37°57' E 023°38'0 0.0
2018-Jul-18 17:00N 37°57' E 023°38'0 0.0
2018-Jul-18 16:30N 37°57' E 023°38'5 9.2
2018-Jul-18 16:00N 37°53' E 023°34'815.5
2018-Jul-18 15:30N 37°48' E 023°28'4 7.0
2018-Jul-18 15:00N 37°45' E 023°26'3 7.0
2018-Jul-18 14:30N 37°42' E 023°22'7 6.7
2018-Jul-18 13:30N 37°48' E 023°27'815.2
2018-Jul-18 13:00N 37°53' E 023°34'5 9.8
2018-Jul-18 12:30N 37°57' E 023°38'0 0.0
2018-Jul-18 12:00N 37°57' E 023°38'0 0.0
2018-Jul-18 11:30N 37°57' E 023°38'0 0.0
2018-Jul-18 10:30N 37°57' E 023°38'0 0.1
2018-Jul-18 10:00N 37°57' E 023°38'612.5
2018-Jul-18 09:30N 37°52' E 023°33'815.4
2018-Jul-18 09:00N 37°47' E 023°26'3 5.3
2018-Jul-18 08:30N 37°44' E 023°25'3 4.8
2018-Jul-18 07:54N 37°42' E 023°22'3 8.8
2018-Jul-18 07:30N 37°45' E 023°26'3 5.9
2018-Jul-18 07:00N 37°47' E 023°27'815.3
2018-Jul-18 06:30N 37°53' E 023°34'510.8
2018-Jul-18 06:00N 37°57' E 023°38'0 0.0
2018-Jul-18 05:30N 37°57' E 023°38'0 0.0
2018-Jul-18 05:00N 37°57' E 023°38'0 0.0
2018-Jul-18 04:30N 37°57' E 023°38'0 0.0
2018-Jul-18 04:00N 37°57' E 023°38'0 0.0
2018-Jul-18 03:30N 37°57' E 023°38'0 0.0
2018-Jul-18 03:00N 37°57' E 023°38'0 0.0
2018-Jul-18 02:30N 37°57' E 023°38'0 0.0
2018-Jul-18 02:00N 37°57' E 023°38'0 0.0
2018-Jul-18 01:30N 37°57' E 023°38'0 0.0
2018-Jul-18 01:00N 37°57' E 023°38'0 0.0
2018-Jul-18 00:30N 37°57' E 023°38'0 0.0
2018-Jul-18 00:00N 37°57' E 023°38'0 0.0
2018-Jul-17 23:30N 37°57' E 023°38'0 0.0
2018-Jul-17 23:00N 37°57' E 023°38'0 0.0
2018-Jul-17 22:30N 37°57' E 023°38'0 0.0
2018-Jul-17 22:00N 37°57' E 023°38'0 0.0
2018-Jul-17 21:30N 37°57' E 023°38'0 0.0
2018-Jul-17 21:00N 37°57' E 023°38'0 0.0
2018-Jul-17 20:30N 37°57' E 023°38'0 0.0
2018-Jul-17 20:00N 37°57' E 023°38'0 0.0
2018-Jul-17 19:30N 37°57' E 023°38'0 0.0
2018-Jul-17 19:00N 37°57' E 023°38'0 0.0
2018-Jul-17 18:30N 37°57' E 023°38'0 0.0
2018-Jul-17 18:00N 37°57' E 023°38'2 3.5
2018-Jul-17 17:30N 37°57' E 023°36'714.2
2018-Jul-17 17:00N 37°51' E 023°32'815.4
2018-Jul-17 16:30N 37°46' E 023°25'4 7.4
2018-Jul-17 16:00N 37°42' E 023°23'1 1.2
2018-Jul-17 15:30N 37°42' E 023°22'0 0.0
2018-Jul-17 15:00N 37°42' E 023°22'0 0.0
2018-Jul-17 14:30N 37°42' E 023°22'0 0.5
2018-Jul-17 14:00N 37°43' E 023°22'3 6.4
2018-Jul-17 13:30N 37°45' E 023°26'511.0
2018-Jul-17 13:00N 37°49' E 023°30'714.8
2018-Jul-17 12:30N 37°55' E 023°35'2 4.6
2018-Jul-17 12:00N 37°57' E 023°36'1 2.1
2018-Jul-17 11:30N 37°56' E 023°37'1 2.3
2018-Jul-17 11:00N 37°57' E 023°38'0 0.0
2018-Jul-17 10:30N 37°57' E 023°38'0 0.0
2018-Jul-17 10:00N 37°57' E 023°38'4 7.2
2018-Jul-17 09:30N 37°54' E 023°35'815.4
2018-Jul-17 09:00N 37°48' E 023°29'4 8.9
2018-Jul-17 08:30N 37°45' E 023°26'4 7.1
2018-Jul-17 08:00N 37°42' E 023°22'3 6.6
2018-Jul-17 07:30N 37°45' E 023°25'4 7.3
2018-Jul-17 07:00N 37°48' E 023°28'815.4
2018-Jul-17 06:30N 37°53' E 023°35'5 9.6
2018-Jul-17 06:00N 37°57' E 023°38'0 0.0
2018-Jul-16 21:10N 37°57' E 023°39'0 0.0
2018-Jul-16 21:00N 37°57' E 023°38'0 0.0
2018-Jul-16 20:30N 37°57' E 023°38'0 0.0
2018-Jul-16 20:00N 37°57' E 023°39'0 0.0
2018-Jul-16 19:30N 37°57' E 023°39'0 0.0
2018-Jul-16 19:00N 37°57' E 023°39'0 0.0
2018-Jul-16 18:30N 37°57' E 023°39'0 0.0
2018-Jul-16 18:00N 37°57' E 023°38'0 0.0
2018-Jul-16 17:30N 37°57' E 023°38'2 4.5
2018-Jul-16 17:00N 37°55' E 023°36'815.7
2018-Jul-16 16:30N 37°49' E 023°30'611.7
2018-Jul-16 16:00N 37°45' E 023°25'1 2.5
2018-Jul-16 15:30N 37°46' E 023°25'815.3
2018-Jul-16 15:00N 37°51' E 023°32'714.4
2018-Jul-16 14:30N 37°56' E 023°38'0 0.8
2018-Jul-16 14:00N 37°57' E 023°38'713.5
2018-Jul-16 13:30N 37°51' E 023°33'815.4
2018-Jul-16 13:00N 37°46' E 023°25'2 3.3
2018-Jul-16 12:30N 37°45' E 023°26'612.4
2018-Jul-16 12:00N 37°39' E 023°25'710.5
2018-Jul-16 11:23N 37°32' E 023°25'2 1.5
2018-Jul-16 09:54N 37°30' E 023°27'6 9.0
2018-Jul-16 09:12N 37°36' E 023°25'315.5
2018-Jul-16 09:00N 37°39' E 023°25'510.8
2018-Jul-16 08:30N 37°45' E 023°25'5 9.9
2018-Jul-16 08:00N 37°49' E 023°29'815.4
2018-Jul-16 07:30N 37°55' E 023°36'3 6.3
2018-Jul-16 07:00N 37°57' E 023°38'0 0.0
2018-Jul-16 06:30N 37°57' E 023°38'0 0.0
2018-Jul-16 06:00N 37°57' E 023°38'3 5.8
2018-Jul-16 05:30N 37°55' E 023°36'815.4
2018-Jul-16 05:00N 37°49' E 023°30'510.4
2018-Jul-16 04:30N 37°45' E 023°26'0 0.0
2018-Jul-16 04:00N 37°45' E 023°26'0 0.0
2018-Jul-16 02:02N 37°45' E 023°26'0 0.0
2018-Jul-15 18:57N 37°45' E 023°25'0 0.0
2018-Jul-15 18:30N 37°45' E 023°25'510.3
2018-Jul-15 18:00N 37°49' E 023°30'815.3
2018-Jul-15 17:30N 37°55' E 023°36'3 5.9
2018-Jul-15 17:00N 37°57' E 023°39'4 8.9
2018-Jul-15 16:30N 37°54' E 023°34'815.4
2018-Jul-15 16:00N 37°48' E 023°28'713.4
2018-Jul-15 15:30N 37°43' E 023°23'0 0.9
2018-Jul-15 15:00N 37°42' E 023°22'3 6.9
2018-Jul-15 14:30N 37°45' E 023°26'510.8
2018-Jul-15 14:00N 37°49' E 023°30'815.8
2018-Jul-15 13:30N 37°55' E 023°36'3 5.0
2018-Jul-15 13:00N 37°57' E 023°38'713.3
2018-Jul-15 12:30N 37°51' E 023°33'815.5
2018-Jul-15 12:00N 37°47' E 023°26'2 3.8
2018-Jul-15 11:30N 37°45' E 023°26'2 3.6
2018-Jul-15 11:00N 37°46' E 023°25'815.9
2018-Jul-15 10:30N 37°51' E 023°33'713.5
2018-Jul-15 10:00N 37°57' E 023°39'4 7.4
2018-Jul-15 09:30N 37°54' E 023°35'815.3
2018-Jul-15 09:00N 37°48' E 023°29'4 9.0
2018-Jul-15 08:30N 37°45' E 023°26'4 7.0
2018-Jul-15 08:00N 37°42' E 023°22'3 6.7
2018-Jul-15 07:30N 37°45' E 023°25'3 6.0
2018-Jul-15 07:00N 37°47' E 023°27'815.6
2018-Jul-15 06:30N 37°53' E 023°34'510.8
2018-Jul-15 06:00N 37°57' E 023°38'0 0.0
2018-Jul-15 05:30N 37°57' E 023°38'0 0.0
2018-Jul-15 05:00N 37°57' E 023°38'0 0.0
2018-Jul-15 04:30N 37°57' E 023°38'0 0.0
2018-Jul-15 04:00N 37°57' E 023°38'0 0.0
2018-Jul-15 03:30N 37°57' E 023°38'0 0.0
2018-Jul-15 03:00N 37°57' E 023°38'0 0.0
2018-Jul-15 02:30N 37°57' E 023°38'0 0.0
2018-Jul-15 02:00N 37°57' E 023°38'0 0.0
2018-Jul-15 01:30N 37°57' E 023°38'0 0.0
2018-Jul-15 01:00N 37°57' E 023°38'0 0.0
2018-Jul-15 00:30N 37°57' E 023°38'0 0.0
2018-Jul-15 00:00N 37°57' E 023°38'0 0.0
2018-Jul-14 23:30N 37°57' E 023°38'0 0.0
2018-Jul-14 23:00N 37°57' E 023°38'0 0.0
2018-Jul-14 22:30N 37°57' E 023°38'0 0.0
2018-Jul-14 22:00N 37°57' E 023°38'0 0.0
2018-Jul-14 21:30N 37°57' E 023°38'0 0.0
2018-Jul-14 21:00N 37°57' E 023°38'0 0.0
2018-Jul-14 20:30N 37°57' E 023°38'0 0.0
2018-Jul-14 20:00N 37°57' E 023°38'0 0.0
2018-Jul-14 19:30N 37°57' E 023°38'0 0.0
2018-Jul-14 19:00N 37°57' E 023°38'0 0.0
2018-Jul-14 18:30N 37°57' E 023°38'4 8.9
2018-Jul-14 18:00N 37°53' E 023°35'815.2
2018-Jul-14 17:30N 37°48' E 023°28'4 7.1
2018-Jul-14 16:58N 37°45' E 023°26'3 5.5
2018-Jul-14 16:30N 37°47' E 023°26'815.6
2018-Jul-14 16:00N 37°52' E 023°34'611.4
2018-Jul-14 15:30N 37°57' E 023°38'0 0.0
2018-Jul-14 15:00N 37°57' E 023°38'3 2.6
2018-Jul-14 14:00N 37°55' E 023°36'815.6
2018-Jul-14 13:30N 37°49' E 023°30'510.7
2018-Jul-14 13:00N 37°45' E 023°26'2 4.7
2018-Jul-14 12:30N 37°47' E 023°26'815.5
2018-Jul-14 12:00N 37°52' E 023°34'612.1
2018-Jul-14 11:30N 37°57' E 023°39'0 0.0
2018-Jul-14 11:00N 37°57' E 023°39'0 0.0
2018-Jul-14 10:30N 37°57' E 023°39'3 6.5
2018-Jul-14 10:00N 37°54' E 023°35'815.5
2018-Jul-14 09:30N 37°49' E 023°29'5 9.6
2018-Jul-14 09:00N 37°45' E 023°26'3 7.0
2018-Jul-14 08:30N 37°42' E 023°22'1 1.3
2018-Jul-14 08:00N 37°43' E 023°23'3 5.3
2018-Jul-14 07:30N 37°45' E 023°25'714.2
2018-Jul-14 07:00N 37°50' E 023°31'815.4
2018-Jul-14 06:30N 37°56' E 023°37'1 2.5
2018-Jul-14 06:00N 37°57' E 023°38'0 0.0
2018-Jul-14 05:30N 37°57' E 023°38'0 0.0
2018-Jul-14 05:00N 37°57' E 023°38'0 0.0
2018-Jul-14 04:30N 37°57' E 023°38'0 0.0
2018-Jul-14 04:00N 37°57' E 023°38'0 0.0
2018-Jul-14 03:30N 37°57' E 023°38'0 0.0
2018-Jul-14 03:00N 37°57' E 023°38'0 0.0
2018-Jul-14 02:30N 37°57' E 023°38'0 0.0
2018-Jul-14 02:00N 37°57' E 023°38'0 0.0
2018-Jul-14 01:30N 37°57' E 023°38'0 0.0
2018-Jul-14 01:00N 37°57' E 023°38'0 0.0
2018-Jul-14 00:30N 37°57' E 023°38'0 0.0
2018-Jul-14 00:00N 37°57' E 023°38'0 0.0
2018-Jul-13 23:30N 37°57' E 023°38'0 0.0
2018-Jul-13 23:00N 37°57' E 023°38'0 0.0
2018-Jul-13 22:30N 37°57' E 023°38'0 0.0
2018-Jul-13 22:00N 37°57' E 023°38'0 0.0
2018-Jul-13 21:30N 37°57' E 023°38'0 0.0
2018-Jul-13 21:00N 37°57' E 023°38'0 0.0
2018-Jul-13 20:30N 37°57' E 023°38'0 0.0
2018-Jul-13 20:00N 37°57' E 023°38'1 1.8
2018-Jul-13 19:30N 37°56' E 023°37'815.4
2018-Jul-13 19:00N 37°50' E 023°31'714.9
2018-Jul-13 18:30N 37°45' E 023°25'2 4.2
2018-Jul-13 18:00N 37°47' E 023°26'815.3
2018-Jul-13 17:30N 37°52' E 023°33'612.7
2018-Jul-13 17:00N 37°57' E 023°38'0 0.1
2018-Jul-13 16:30N 37°57' E 023°38'510.0
2018-Jul-13 16:00N 37°53' E 023°34'815.5
2018-Jul-13 15:30N 37°48' E 023°27'3 6.4
2018-Jul-13 15:00N 37°45' E 023°25'0 0.1
2018-Jul-13 14:00N 37°45' E 023°26'5 9.3
2018-Jul-13 13:30N 37°48' E 023°29'815.1
2018-Jul-13 13:00N 37°54' E 023°35'4 7.4
2018-Jul-13 12:30N 37°57' E 023°38'0 0.0
2018-Jul-13 12:00N 37°57' E 023°38'0 0.0
2018-Jul-13 11:30N 37°57' E 023°38'0 0.0
2018-Jul-13 11:00N 37°57' E 023°38'0 0.0
2018-Jul-13 10:30N 37°57' E 023°38'0 0.0
2018-Jul-13 10:00N 37°57' E 023°38'0 0.0
2018-Jul-13 09:30N 37°57' E 023°38'0 0.0
2018-Jul-13 09:00N 37°57' E 023°38'0 0.0
2018-Jul-13 08:30N 37°57' E 023°38'0 0.0
2018-Jul-13 08:00N 37°57' E 023°38'0 0.0
2018-Jul-13 07:30N 37°57' E 023°38'0 0.0
2018-Jul-13 07:00N 37°57' E 023°38'0 0.0
2018-Jul-13 06:30N 37°57' E 023°38'0 0.0
2018-Jul-13 06:00N 37°57' E 023°38'4 8.4
2018-Jul-13 05:30N 37°54' E 023°35'815.6
2018-Jul-13 05:00N 37°48' E 023°28'4 7.7
2018-Jul-13 04:30N 37°45' E 023°26'0 0.0
2018-Jul-13 04:00N 37°45' E 023°26'0 0.0
2018-Jul-13 03:30N 37°45' E 023°26'0 0.0
2018-Jul-13 03:00N 37°45' E 023°26'0 0.0
2018-Jul-13 02:03N 37°45' E 023°26'0 0.0
2018-Jul-13 01:56N 37°45' E 023°25'0 0.0
2018-Jul-13 01:28N 37°45' E 023°26'0 0.0
2018-Jul-13 01:00N 37°45' E 023°26'0 0.0
2018-Jul-13 00:30N 37°45' E 023°26'0 0.0
2018-Jul-13 00:00N 37°45' E 023°26'0 0.0
2018-Jul-12 23:30N 37°45' E 023°26'0 0.0
2018-Jul-12 22:59N 37°45' E 023°26'0 0.0
2018-Jul-12 22:30N 37°45' E 023°26'0 0.0
2018-Jul-12 22:00N 37°45' E 023°26'0 0.0
2018-Jul-12 21:30N 37°45' E 023°26'0 0.0
2018-Jul-12 21:00N 37°45' E 023°26'0 0.0
2018-Jul-12 20:30N 37°45' E 023°26'0 0.0
2018-Jul-12 19:53N 37°45' E 023°26'0 0.0
2018-Jul-12 17:13N 37°45' E 023°26'0 0.0
2018-Jul-12 17:00N 37°45' E 023°26'4 8.6
2018-Jul-12 16:30N 37°48' E 023°29'815.2
2018-Jul-12 16:00N 37°54' E 023°35'4 7.7
2018-Jul-12 15:30N 37°57' E 023°38'0 0.0
2018-Jul-12 15:00N 37°57' E 023°38'0 0.0
2018-Jul-12 14:30N 37°57' E 023°38'0 0.0
2018-Jul-12 14:00N 37°57' E 023°38'0 0.0
2018-Jul-12 13:30N 37°57' E 023°38'0 0.0
2018-Jul-12 13:00N 37°57' E 023°38'0 0.0
2018-Jul-12 12:30N 37°57' E 023°38'0 0.0
2018-Jul-12 12:00N 37°57' E 023°38'0 0.0
2018-Jul-12 11:30N 37°57' E 023°38'0 0.0
2018-Jul-12 11:00N 37°57' E 023°38'0 0.0
2018-Jul-12 10:30N 37°57' E 023°38'0 0.0
2018-Jul-12 10:00N 37°57' E 023°38'4 8.2
2018-Jul-12 09:30N 37°54' E 023°35'815.1
2018-Jul-12 09:00N 37°48' E 023°28'4 8.2
2018-Jul-12 08:30N 37°45' E 023°26'4 7.1
2018-Jul-12 08:00N 37°42' E 023°22'3 5.7
2018-Jul-12 07:30N 37°44' E 023°25'3 6.5
2018-Jul-12 07:00N 37°47' E 023°26'815.2
2018-Jul-12 06:30N 37°52' E 023°34'612.0
2018-Jul-12 06:00N 37°57' E 023°38'0 0.0
2018-Jul-12 05:30N 37°57' E 023°38'0 0.0
2018-Jul-12 05:00N 37°57' E 023°38'0 0.0
2018-Jul-12 04:30N 37°57' E 023°38'0 0.0
2018-Jul-12 04:00N 37°57' E 023°38'0 0.0
2018-Jul-12 03:30N 37°57' E 023°38'0 0.0
2018-Jul-12 03:00N 37°57' E 023°38'0 0.0
2018-Jul-12 02:30N 37°57' E 023°38'0 0.0
2018-Jul-12 02:00N 37°57' E 023°38'0 0.0
2018-Jul-12 01:30N 37°57' E 023°38'0 0.0
2018-Jul-12 01:00N 37°57' E 023°38'0 0.0
2018-Jul-12 00:30N 37°57' E 023°38'  

Dump ship's entire track history